Time;durP1;ratioP1;P1;durP2;ratioP2;P2;SDS_P1;SDS_P2;PMS_P1;PMS_P2;Temp;Humidity;BMP_temperature;BMP_pressure;BME280_temperature;BME280_humidity;BME280_pressure;Samples;Min_cycle;Max_cycle;Signal;HPM_P1;HPM_P2
2022/05/23 00:02:06;;;;;;;4.68;1.25;;;15.40;99.40;;;;;;5067925;28;20917;-80
2022/05/23 00:04:32;;;;;;;4.57;1.10;;;15.30;99.50;;;;;;5067734;28;20407;-80
2022/05/23 00:06:58;;;;;;;4.50;1.10;;;15.30;99.70;;;;;;5067781;28;20404;-80
2022/05/23 00:09:24;;;;;;;5.32;1.30;;;15.20;99.90;;;;;;5049842;28;20935;-80
2022/05/23 00:11:51;;;;;;;3.77;1.20;;;15.20;99.90;;;;;;5067480;28;20970;-80
2022/05/23 00:14:17;;;;;;;5.00;1.27;;;15.10;99.90;;;;;;5067743;28;20396;-80
2022/05/23 00:16:46;;;;;;;4.22;1.38;;;15.10;99.90;;;;;;5070181;28;20400;-80
2022/05/23 00:19:13;;;;;;;7.38;1.30;;;15.10;99.90;;;;;;5071618;28;20442;-80
2022/05/23 00:21:40;;;;;;;3.95;1.27;;;15.00;99.90;;;;;;5071617;28;20419;-80
2022/05/23 00:24:07;;;;;;;4.30;1.10;;;15.00;99.90;;;;;;5071394;28;20972;-80
2022/05/23 00:26:33;;;;;;;4.25;1.15;;;15.00;99.90;;;;;;5070987;28;20402;-81
2022/05/23 00:28:59;;;;;;;4.27;1.20;;;15.00;99.90;;;;;;5053587;28;20400;-80
2022/05/23 00:31:24;;;;;;;5.22;1.27;;;14.90;99.90;;;;;;5071252;28;20463;-80
2022/05/23 00:36:35;;;;;;;5.07;1.20;;;14.80;99.90;;;;;;5071171;28;20464;-80
2022/05/23 00:39:01;;;;;;;4.13;1.10;;;14.80;99.90;;;;;;5071125;28;20756;-80
2022/05/23 00:44:27;;;;;;;5.28;1.27;;;14.80;99.90;;;;;;5071226;28;20408;-81
2022/05/23 00:46:59;;;;;;;4.13;1.30;;;14.70;99.90;;;;;;5071403;28;20461;-80
2022/05/23 00:49:27;;;;;;;5.30;1.50;;;14.70;99.90;;;;;;5070842;28;20400;-80
2022/05/23 00:51:56;;;;;;;4.60;1.52;;;14.60;99.90;;;;;;5049223;28;20413;-80
2022/05/23 00:54:24;;;;;;;5.77;1.20;;;14.60;99.90;;;;;;5050963;28;20418;-81
2022/05/23 00:56:52;;;;;;;4.65;1.42;;;14.60;99.90;;;;;;5050773;28;20439;-80
2022/05/23 00:59:25;;;;;;;4.93;1.33;;;14.50;99.90;;;;;;5050501;28;20437;-80
2022/05/23 01:01:51;;;;;;;4.85;1.10;;;14.50;99.90;;;;;;5050010;28;20409;-80
2022/05/23 01:04:17;;;;;;;6.30;1.50;;;14.50;99.90;;;;;;5051043;28;20405;-80
2022/05/23 01:06:42;;;;;;;5.60;1.40;;;14.50;99.90;;;;;;5050860;28;20402;-80
2022/05/23 01:09:08;;;;;;;5.82;1.40;;;14.40;99.90;;;;;;5051287;28;20467;-80
2022/05/23 01:11:33;;;;;;;5.00;1.10;;;14.40;99.90;;;;;;5050182;28;20472;-79
2022/05/23 01:13:59;;;;;;;5.45;1.40;;;14.40;99.90;;;;;;5050605;28;20408;-79
2022/05/23 01:16:26;;;;;;;6.10;1.50;;;14.40;99.90;;;;;;5050882;28;20429;-80
2022/05/23 01:18:52;;;;;;;3.85;1.40;;;14.40;99.90;;;;;;5049680;28;20882;-80
2022/05/23 01:21:49;;;;;;;5.97;1.50;;;14.30;99.90;;;;;;5043724;28;20504;-81
2022/05/23 01:24:44;;;;;;;6.00;1.45;;;14.30;99.90;;;;;;5035628;28;20401;-81
2022/05/23 01:27:11;;;;;;;3.42;1.17;;;14.30;99.90;;;;;;5044862;28;20451;-81
2022/05/23 01:29:38;;;;;;;3.67;1.17;;;14.20;99.90;;;;;;5048752;28;20403;-81
2022/05/23 01:32:04;;;;;;;4.43;1.50;;;14.30;99.90;;;;;;5050248;28;20406;-81
2022/05/23 01:34:29;;;;;;;4.57;1.50;;;14.20;99.90;;;;;;5050358;28;20516;-81
2022/05/23 01:36:58;;;;;;;4.15;1.40;;;14.30;99.90;;;;;;5049401;28;20409;-81
2022/05/23 01:39:24;;;;;;;4.93;1.67;;;14.30;99.90;;;;;;5065004;28;20993;-81
2022/05/23 01:41:49;;;;;;;4.75;1.48;;;14.20;99.90;;;;;;5049838;28;20492;-81
2022/05/23 01:44:15;;;;;;;6.23;1.60;;;14.10;99.90;;;;;;5049780;28;20405;-81
2022/05/23 01:46:41;;;;;;;4.20;1.37;;;14.10;99.90;;;;;;5049943;28;20400;-81
2022/05/23 01:49:06;;;;;;;4.63;1.30;;;14.10;99.90;;;;;;5049459;28;20951;-81
2022/05/23 01:51:32;;;;;;;5.30;1.52;;;14.10;99.90;;;;;;5058567;28;20485;-81
2022/05/23 01:53:57;;;;;;;5.40;1.50;;;14.10;99.90;;;;;;5069455;28;20395;-81
2022/05/23 01:56:23;;;;;;;5.33;1.57;;;14.10;99.90;;;;;;5051532;28;20518;-81
2022/05/23 02:01:33;;;;;;;5.30;1.38;;;14.00;99.90;;;;;;5069193;28;20411;-81
2022/05/23 02:03:58;;;;;;;6.97;1.40;;;14.00;99.90;;;;;;5051854;28;20412;-82
2022/05/23 02:06:24;;;;;;;6.03;1.70;;;14.00;99.90;;;;;;5035319;28;20908;-81
2022/05/23 02:08:49;;;;;;;5.93;1.80;;;14.00;99.90;;;;;;5051546;28;20908;-81
2022/05/23 02:11:15;;;;;;;4.63;1.30;;;14.00;99.90;;;;;;5069428;28;20411;-81
2022/05/23 02:13:43;;;;;;;5.93;1.67;;;13.90;99.90;;;;;;5068875;28;20411;-80
2022/05/23 02:16:09;;;;;;;6.23;1.57;;;14.00;99.90;;;;;;5069297;28;20785;-82
2022/05/23 02:18:35;;;;;;;4.57;1.30;;;14.00;99.90;;;;;;5069066;28;20402;-81
2022/05/23 02:21:00;;;;;;;5.38;1.60;;;14.00;99.90;;;;;;5069276;28;20396;-81
2022/05/23 02:23:26;;;;;;;6.82;1.75;;;14.00;99.90;;;;;;5068603;28;20388;-81
2022/05/23 02:25:52;;;;;;;6.13;1.50;;;14.00;99.90;;;;;;5033520;28;20407;-81
2022/05/23 02:28:19;;;;;;;6.93;1.63;;;14.00;99.90;;;;;;5067958;28;20413;-81
2022/05/23 02:30:47;;;;;;;6.38;1.80;;;14.00;99.90;;;;;;5067111;28;20446;-82
2022/05/23 02:33:12;;;;;;;6.13;1.73;;;14.00;99.90;;;;;;5068674;28;20438;-81
2022/05/23 02:35:38;;;;;;;6.85;1.65;;;14.00;99.90;;;;;;5050800;28;20564;-81
2022/05/23 02:38:04;;;;;;;6.17;1.63;;;14.10;99.90;;;;;;5050353;28;20408;-81
2022/05/23 02:40:30;;;;;;;4.95;1.30;;;14.00;99.90;;;;;;5068835;28;20423;-82
2022/05/23 02:42:55;;;;;;;5.85;1.20;;;14.10;99.90;;;;;;5034574;28;20493;-81
2022/05/23 02:45:21;;;;;;;5.03;1.30;;;14.10;99.90;;;;;;5050796;28;20408;-81
2022/05/23 02:47:47;;;;;;;4.57;1.17;;;14.10;99.90;;;;;;5050504;28;20395;-81
2022/05/23 02:50:13;;;;;;;4.93;1.40;;;14.10;99.90;;;;;;5050490;28;20408;-81
2022/05/23 02:52:40;;;;;;;5.60;1.40;;;14.10;99.90;;;;;;5067786;28;20896;-81
2022/05/23 02:55:08;;;;;;;4.80;1.50;;;14.10;99.90;;;;;;5050443;28;20497;-82
2022/05/23 02:57:35;;;;;;;5.33;1.40;;;14.10;99.90;;;;;;5050627;28;20475;-81
2022/05/23 03:00:01;;;;;;;5.75;1.45;;;14.20;99.90;;;;;;5068240;28;20404;-82
2022/05/23 03:05:12;;;;;;;4.87;1.40;;;14.20;99.90;;;;;;5067469;28;20415;-81
2022/05/23 03:07:37;;;;;;;5.70;1.50;;;14.20;99.90;;;;;;5033060;28;20404;-81
2022/05/23 03:10:04;;;;;;;7.00;1.70;;;14.20;99.90;;;;;;5067407;28;20400;-81
2022/05/23 03:12:30;;;;;;;4.90;1.33;;;14.20;99.90;;;;;;5067319;28;20419;-81
2022/05/23 03:14:56;;;;;;;5.07;1.70;;;14.20;99.90;;;;;;5050322;28;20431;-81
2022/05/23 03:17:21;;;;;;;6.50;1.77;;;14.20;99.90;;;;;;5033644;28;21014;-81
2022/05/23 03:19:47;;;;;;;5.22;1.52;;;14.20;99.90;;;;;;5050402;28;20406;-81
2022/05/23 03:27:43;;;;;;;7.18;2.10;;;14.20;99.90;;;;;;5067711;28;20483;-81
2022/05/23 03:30:10;;;;;;;5.75;1.80;;;14.30;99.90;;;;;;5068313;28;20406;-81
2022/05/23 03:32:35;;;;;;;8.00;1.92;;;14.30;99.90;;;;;;5050326;28;21117;-81
2022/05/23 03:35:02;;;;;;;6.03;2.20;;;14.30;99.90;;;;;;5068027;28;20427;-81
2022/05/23 03:37:28;;;;;;;5.80;1.70;;;14.30;99.90;;;;;;5067980;28;20403;-80
2022/05/23 03:39:54;;;;;;;5.93;2.10;;;14.30;99.90;;;;;;5067324;28;20395;-81
2022/05/23 03:42:20;;;;;;;4.07;1.70;;;14.30;99.90;;;;;;5049964;28;20439;-80
2022/05/23 03:44:45;;;;;;;5.23;1.73;;;14.40;99.90;;;;;;5050039;28;20489;-81
2022/05/23 03:47:11;;;;;;;4.88;1.70;;;14.40;99.90;;;;;;5067763;28;20411;-81
2022/05/23 03:49:37;;;;;;;5.82;2.25;;;14.40;99.90;;;;;;5049937;28;20400;-81
2022/05/23 03:52:03;;;;;;;5.63;2.00;;;14.40;99.90;;;;;;5071424;28;20497;-81
2022/05/23 03:54:29;;;;;;;4.50;1.60;;;14.50;99.90;;;;;;5069044;28;20438;-81
2022/05/23 03:57:03;;;;;;;5.30;1.75;;;14.50;99.90;;;;;;5071588;28;20757;-81
2022/05/23 03:59:29;;;;;;;4.97;1.80;;;14.60;99.90;;;;;;5071817;28;20391;-81
2022/05/23 04:01:57;;;;;;;5.90;1.77;;;14.60;99.90;;;;;;5071630;28;20442;-81
2022/05/23 04:04:27;;;;;;;4.60;1.63;;;14.60;99.90;;;;;;5071736;28;20412;-81
2022/05/23 04:06:53;;;;;;;5.00;1.80;;;14.60;99.90;;;;;;5071739;28;20415;-81
2022/05/23 04:09:19;;;;;;;5.03;1.70;;;14.60;99.90;;;;;;5071564;28;20430;-81
2022/05/23 04:11:45;;;;;;;4.75;1.70;;;14.60;99.90;;;;;;5070885;28;20392;-81
2022/05/23 04:14:10;;;;;;;6.55;2.15;;;14.60;99.90;;;;;;5053286;28;20411;-81
2022/05/23 04:16:36;;;;;;;6.72;1.90;;;14.60;99.90;;;;;;5071539;28;20753;-81
2022/05/23 04:19:08;;;;;;;2.80;1.50;;;14.60;99.90;;;;;;5071356;28;20889;-81
2022/05/23 04:21:34;;;;;;;6.05;1.80;;;14.60;99.90;;;;;;5052918;28;20411;-81
2022/05/23 04:23:59;;;;;;;4.87;1.70;;;14.60;99.90;;;;;;5071363;28;20396;-81
2022/05/23 04:26:25;;;;;;;4.45;1.92;;;14.60;99.90;;;;;;5052693;28;20399;-81
2022/05/23 04:28:50;;;;;;;6.77;1.90;;;14.60;99.90;;;;;;5070892;28;20395;-81
2022/05/23 04:31:17;;;;;;;6.50;2.10;;;14.60;99.90;;;;;;5070596;28;20414;-81
2022/05/23 04:36:27;;;;;;;6.45;2.20;;;14.60;99.90;;;;;;5070651;28;20430;-81
2022/05/23 04:38:53;;;;;;;4.93;2.10;;;14.60;99.90;;;;;;5070377;28;20937;-81
2022/05/23 04:41:19;;;;;;;5.63;1.90;;;14.60;99.90;;;;;;5070584;28;20399;-81
2022/05/23 04:43:45;;;;;;;5.97;2.00;;;14.60;99.90;;;;;;5070568;28;20427;-81
2022/05/23 04:46:11;;;;;;;7.32;2.13;;;14.60;99.90;;;;;;5053043;28;20420;-81
2022/05/23 04:51:21;;;;;;;7.43;3.10;;;14.70;99.90;;;;;;5052409;28;20419;-81
2022/05/23 04:53:53;;;;;;;5.60;2.40;;;14.60;99.90;;;;;;5052765;28;20403;-81
2022/05/23 04:56:20;;;;;;;6.38;2.60;;;14.70;99.90;;;;;;5070701;28;20424;-81
2022/05/23 04:58:46;;;;;;;5.63;2.22;;;14.70;99.90;;;;;;5069864;28;20413;-81
2022/05/23 05:01:11;;;;;;;6.60;2.50;;;14.80;99.90;;;;;;5070412;28;20407;-81
2022/05/23 05:03:37;;;;;;;6.00;2.60;;;14.80;99.90;;;;;;5052488;28;20419;-81
2022/05/23 05:06:03;;;;;;;6.05;2.80;;;14.90;99.90;;;;;;5052687;28;20407;-81
2022/05/23 05:08:29;;;;;;;6.27;2.67;;;14.90;99.90;;;;;;5070555;28;20416;-81
2022/05/23 05:10:57;;;;;;;6.40;2.85;;;15.00;99.90;;;;;;5069109;28;20404;-81
2022/05/23 05:13:23;;;;;;;6.22;2.80;;;15.00;99.90;;;;;;5070253;28;20490;-81
2022/05/23 05:15:49;;;;;;;7.45;3.30;;;14.90;99.90;;;;;;5070070;28;20428;-81
2022/05/23 05:18:15;;;;;;;8.38;3.03;;;14.90;99.90;;;;;;5086253;28;20410;-80
2022/05/23 05:20:40;;;;;;;8.80;3.27;;;14.90;99.90;;;;;;5052298;28;20493;-81
2022/05/23 05:23:06;;;;;;;9.98;3.42;;;14.90;99.90;;;;;;5069895;28;20395;-81
2022/05/23 05:25:32;;;;;;;7.30;3.10;;;15.00;99.90;;;;;;5069541;28;20400;-81
2022/05/23 05:27:58;;;;;;;8.10;2.92;;;15.10;99.90;;;;;;5069969;28;20970;-81
2022/05/23 05:30:23;;;;;;;8.60;3.10;;;15.20;99.90;;;;;;5085893;28;20392;-81
2022/05/23 05:33:10;;;;;;;6.78;3.05;;;15.20;99.90;;;;;;5085888;28;20893;-81
2022/05/23 05:35:42;;;;;;;8.38;3.35;;;15.20;99.90;;;;;;5051609;28;20435;-81
2022/05/23 05:38:22;;;;;;;7.65;3.30;;;15.20;99.90;;;;;;5069995;28;20404;-81
2022/05/23 05:40:53;;;;;;;8.23;3.45;;;15.20;99.90;;;;;;5069656;28;20408;-81
2022/05/23 05:43:29;;;;;;;8.30;3.38;;;15.20;99.90;;;;;;5069384;28;20868;-79
2022/05/23 05:46:03;;;;;;;6.47;3.35;;;15.20;99.90;;;;;;5051904;28;20447;-79
2022/05/23 05:48:29;;;;;;;8.52;3.35;;;15.20;99.90;;;;;;5069567;28;20464;-79
2022/05/23 05:50:56;;;;;;;8.23;3.50;;;15.30;99.90;;;;;;5063807;28;20932;-79
2022/05/23 05:53:28;;;;;;;7.13;3.35;;;15.30;99.90;;;;;;5085747;28;20426;-80
2022/05/23 05:55:54;;;;;;;7.13;3.77;;;15.30;99.90;;;;;;5070890;28;20433;-81
2022/05/23 05:58:19;;;;;;;6.53;3.38;;;15.30;99.90;;;;;;5090390;28;20405;-81
2022/05/23 06:00:45;;;;;;;6.70;3.33;;;15.30;99.90;;;;;;5090564;28;20539;-79
2022/05/23 06:03:11;;;;;;;6.50;3.50;;;15.30;99.90;;;;;;5079487;28;20396;-80
2022/05/23 06:11:23;;;;;;;8.32;4.03;;;15.40;99.90;;;;;;5052770;28;20410;-82
2022/05/23 06:13:55;;;;;;;7.03;3.85;;;15.40;99.90;;;;;;5069839;28;20446;-82
2022/05/23 06:16:22;;;;;;;9.02;4.10;;;15.30;99.90;;;;;;5070827;28;20439;-82
2022/05/23 06:18:47;;;;;;;6.90;4.05;;;15.30;99.90;;;;;;5068883;28;20396;-81
2022/05/23 06:21:13;;;;;;;9.05;3.97;;;15.30;99.90;;;;;;5069164;28;20430;-82
2022/05/23 06:23:40;;;;;;;8.10;4.10;;;15.30;99.90;;;;;;5069267;28;20855;-82
2022/05/23 06:26:06;;;;;;;7.38;4.30;;;15.40;99.90;;;;;;5069071;28;20407;-82
2022/05/23 06:28:31;;;;;;;7.60;4.03;;;15.50;99.90;;;;;;5068963;28;20427;-80
2022/05/23 06:30:59;;;;;;;8.20;4.35;;;15.60;99.90;;;;;;5068980;28;20461;-80
2022/05/23 06:33:25;;;;;;;6.18;3.70;;;15.70;99.90;;;;;;5069107;28;20483;-80
2022/05/23 06:35:51;;;;;;;8.10;3.80;;;15.80;99.90;;;;;;5068361;28;20459;-81
2022/05/23 06:38:17;;;;;;;6.50;3.88;;;15.80;99.90;;;;;;5051176;28;20407;-80
2022/05/23 06:40:43;;;;;;;8.52;4.13;;;15.80;99.90;;;;;;5068503;28;20403;-80
2022/05/23 06:43:09;;;;;;;7.53;4.22;;;15.90;99.90;;;;;;5069224;28;20400;-80
2022/05/23 06:45:36;;;;;;;9.23;4.30;;;15.90;99.90;;;;;;5068434;28;20400;-81
2022/05/23 06:48:02;;;;;;;7.27;4.50;;;15.90;99.90;;;;;;5068494;28;20970;-81
2022/05/23 06:50:28;;;;;;;11.35;4.80;;;15.90;99.90;;;;;;5068345;28;20396;-82
2022/05/23 06:52:53;;;;;;;9.83;4.73;;;16.00;99.90;;;;;;5068512;28;20444;-83
2022/05/23 06:55:19;;;;;;;8.23;4.65;;;16.10;99.90;;;;;;5050542;28;20801;-82
2022/05/23 06:57:44;;;;;;;10.07;4.90;;;16.10;99.90;;;;;;5050732;28;20400;-82
2022/05/23 07:00:11;;;;;;;9.20;5.00;;;16.20;99.90;;;;;;5034156;28;20920;-82
2022/05/23 07:02:37;;;;;;;7.93;5.03;;;16.30;99.90;;;;;;5067906;28;20391;-80
2022/05/23 07:13:16;;;;;;;9.98;4.78;;;16.60;99.90;;;;;;5068870;28;20486;-81
2022/05/23 07:15:47;;;;;;;6.53;4.80;;;16.70;99.90;;;;;;5083896;28;20880;-81
2022/05/23 07:18:17;;;;;;;8.43;4.72;;;16.80;99.90;;;;;;5068458;28;20400;-80
2022/05/23 07:20:43;;;;;;;8.23;4.57;;;16.80;99.90;;;;;;5068104;28;20430;-80
2022/05/23 07:23:09;;;;;;;8.67;4.87;;;16.90;99.90;;;;;;5067909;28;20482;-80
2022/05/23 07:25:35;;;;;;;7.53;4.75;;;16.90;99.90;;;;;;5082683;28;20510;-80
2022/05/23 07:28:01;;;;;;;7.40;4.40;;;17.00;99.90;;;;;;5068077;28;20400;-81
2022/05/23 07:30:28;;;;;;;7.53;4.67;;;17.10;99.90;;;;;;5068442;28;20404;-80
2022/05/23 07:32:54;;;;;;;9.30;5.20;;;17.10;99.90;;;;;;5050715;28;20442;-80
2022/05/23 07:35:20;;;;;;;7.45;4.53;;;17.20;99.90;;;;;;5067727;28;20428;-80
2022/05/23 07:37:46;;;;;;;6.95;4.28;;;17.20;99.90;;;;;;5068040;28;20431;-80
2022/05/23 07:40:12;;;;;;;7.33;4.73;;;17.30;99.90;;;;;;5068109;28;20400;-80
2022/05/23 07:42:38;;;;;;;7.03;4.32;;;17.30;99.90;;;;;;5050336;28;20416;-80
2022/05/23 07:45:05;;;;;;;9.00;5.00;;;17.50;99.90;;;;;;5067987;28;20418;-80
2022/05/23 07:47:31;;;;;;;8.20;4.68;;;17.50;99.90;;;;;;5083305;28;20479;-80
2022/05/23 07:49:57;;;;;;;8.63;5.00;;;17.60;99.90;;;;;;5050421;28;20549;-80
2022/05/23 07:52:23;;;;;;;9.57;5.00;;;17.70;99.90;;;;;;5068128;28;20411;-80
2022/05/23 08:00:33;;;;;;;7.03;5.10;;;18.30;99.90;;;;;;5067505;28;20410;-80
2022/05/23 08:03:18;;;;;;;7.43;5.00;;;18.40;99.90;;;;;;5067727;28;20518;-80
2022/05/23 08:05:45;;;;;;;8.65;4.75;;;18.50;99.90;;;;;;5066244;28;20448;-80
2022/05/23 08:08:11;;;;;;;7.47;4.70;;;18.60;99.90;;;;;;5067978;28;20461;-81
2022/05/23 08:10:38;;;;;;;9.07;4.90;;;18.80;99.90;;;;;;5067840;28;20811;-81
2022/05/23 08:13:09;;;;;;;9.75;4.78;;;19.00;99.90;;;;;;5067665;28;20402;-81
2022/05/23 08:15:37;;;;;;;8.13;5.10;;;19.10;99.90;;;;;;5067597;28;20428;-81
2022/05/23 08:18:04;;;;;;;9.53;5.30;;;19.20;99.90;;;;;;5067515;28;20403;-81
2022/05/23 08:20:30;;;;;;;6.72;5.10;;;19.20;99.90;;;;;;5067785;28;20816;-81
2022/05/23 08:22:57;;;;;;;8.65;5.28;;;19.20;99.90;;;;;;5067954;28;20396;-80
2022/05/23 08:25:23;;;;;;;7.75;5.13;;;19.30;99.90;;;;;;5067743;28;20971;-81
2022/05/23 08:27:49;;;;;;;8.82;5.28;;;19.30;99.90;;;;;;5049511;28;20506;-80
2022/05/23 08:30:15;;;;;;;8.00;5.57;;;19.30;99.90;;;;;;5067735;28;20491;-82
2022/05/23 08:32:41;;;;;;;11.65;5.65;;;19.40;99.90;;;;;;5067354;28;20486;-81
2022/05/23 08:35:08;;;;;;;9.43;5.10;;;19.40;99.90;;;;;;5067243;28;20927;-81
2022/05/23 08:37:34;;;;;;;8.10;5.32;;;19.40;99.90;;;;;;5070224;28;20483;-80
2022/05/23 08:40:00;;;;;;;9.80;5.70;;;19.50;99.90;;;;;;5071037;28;20760;-81
2022/05/23 08:42:26;;;;;;;8.33;5.37;;;19.70;99.90;;;;;;5053558;28;20392;-81
2022/05/23 08:45:18;;;;;;;9.88;5.60;;;19.90;99.90;;;;;;5071151;28;20469;-81
2022/05/23 08:48:07;;;;;;;10.63;5.70;;;20.00;99.90;;;;;;5045890;28;20404;-81
2022/05/23 08:50:43;;;;;;;10.43;5.37;;;20.10;99.90;;;;;;5070688;28;20408;-81
2022/05/23 08:53:15;;;;;;;10.00;5.40;;;20.10;99.90;;;;;;5070786;28;20432;-81
2022/05/23 08:55:46;;;;;;;9.52;4.72;;;20.10;99.90;;;;;;5036140;28;20431;-81
2022/05/23 08:58:30;;;;;;;8.50;5.18;;;20.20;99.90;;;;;;5070926;28;20436;-81
2022/05/23 09:01:21;;;;;;;7.65;5.13;;;20.30;99.90;;;;;;5070224;28;20407;-81
2022/05/23 09:03:53;;;;;;;10.25;5.60;;;20.40;99.90;;;;;;5069967;28;20438;-81
2022/05/23 09:06:34;;;;;;;9.73;5.50;;;20.60;99.90;;;;;;5070452;28;20927;-81
2022/05/23 09:09:04;;;;;;;7.18;5.10;;;20.70;99.90;;;;;;5070714;28;20403;-81
2022/05/23 09:11:40;;;;;;;10.20;5.43;;;20.80;99.90;;;;;;5035992;28;20404;-81
2022/05/23 09:14:08;;;;;;;7.65;5.03;;;20.90;99.90;;;;;;5052508;28;20400;-81
2022/05/23 09:17:00;;;;;;;8.48;4.63;;;21.10;99.90;;;;;;5070221;28;20951;-81
2022/05/23 09:19:35;;;;;;;7.40;4.53;;;21.30;99.90;;;;;;5049803;28;20499;-81
2022/05/23 09:22:24;;;;;;;8.18;4.75;;;21.40;99.90;;;;;;5070196;28;20406;-81
2022/05/23 09:25:00;;;;;;;7.93;4.50;;;21.60;99.90;;;;;;5070566;28;20048;-82
2022/05/23 09:27:36;;;;;;;7.70;4.70;;;21.80;99.80;;;;;;5051404;28;20404;-81
2022/05/23 09:30:13;;;;;;;8.15;4.53;;;22.10;99.90;;;;;;5069866;28;20481;-82
2022/05/23 09:32:53;;;;;;;7.25;4.68;;;22.50;98.30;;;;;;5070018;28;20410;-81
2022/05/23 09:35:20;;;;;;;7.95;4.43;;;22.70;98.40;;;;;;5052094;28;20443;-82
2022/05/23 09:38:02;;;;;;;7.00;4.45;;;23.00;98.80;;;;;;5069958;28;20501;-81
2022/05/23 09:40:32;;;;;;;7.00;4.30;;;23.20;97.70;;;;;;5069691;28;20408;-81
2022/05/23 09:49:11;;;;;;;10.02;4.38;;;23.80;96.10;;;;;;5068762;28;20399;-82
2022/05/23 09:51:57;;;;;;;7.88;3.85;;;24.00;95.10;;;;;;5068970;28;20443;-82
2022/05/23 09:54:35;;;;;;;6.05;3.58;;;24.20;95.00;;;;;;5069807;28;20781;-81
2022/05/23 09:57:05;;;;;;;6.88;4.05;;;24.40;94.50;;;;;;5069771;28;20491;-82
2022/05/23 09:59:37;;;;;;;6.43;3.90;;;24.60;94.10;;;;;;5051864;28;20882;-81
2022/05/23 10:02:14;;;;;;;6.15;3.60;;;24.70;93.30;;;;;;5051573;28;20407;-82
2022/05/23 10:04:44;;;;;;;5.87;3.50;;;24.90;93.00;;;;;;5051165;28;20442;-82
2022/05/23 10:07:32;;;;;;;8.48;3.90;;;25.00;93.20;;;;;;5069415;28;20969;-82
2022/05/23 10:10:26;;;;;;;6.10;3.22;;;25.10;92.50;;;;;;5069322;28;20408;-82
2022/05/23 10:13:10;;;;;;;5.95;3.33;;;25.20;92.80;;;;;;5048377;28;20988;-82
2022/05/23 10:15:46;;;;;;;6.45;3.00;;;25.40;91.60;;;;;;5068958;28;20423;-82
2022/05/23 10:18:20;;;;;;;6.13;2.75;;;25.50;90.10;;;;;;5069043;28;20507;-82
2022/05/23 10:20:46;;;;;;;10.95;3.30;;;25.60;90.60;;;;;;5069320;28;20802;-82
2022/05/23 10:23:22;;;;;;;6.20;2.90;;;25.70;87.20;;;;;;5069170;28;20912;-82
2022/05/23 10:26:15;;;;;;;5.57;2.85;;;25.80;89.30;;;;;;5069193;28;20507;-82
2022/05/23 10:28:47;;;;;;;5.90;3.38;;;25.90;89.70;;;;;;5068427;28;20472;-82
2022/05/23 10:31:35;;;;;;;5.85;2.45;;;26.10;87.70;;;;;;5068065;28;20415;-82
2022/05/23 10:34:30;;;;;;;5.53;2.65;;;26.50;89.30;;;;;;5067976;28;20462;-82
2022/05/23 10:36:57;;;;;;;4.80;2.50;;;26.90;83.80;;;;;;5068747;28;20939;-82
2022/05/23 10:42:28;;;;;;;6.55;3.00;;;27.00;83.30;;;;;;5068841;28;20400;-82
2022/05/23 10:45:18;;;;;;;5.40;2.20;;;27.20;83.20;;;;;;5069333;28;20838;-82
2022/05/23 10:48:07;;;;;;;5.82;2.50;;;27.40;79.20;;;;;;5069442;28;20491;-82
2022/05/23 10:50:45;;;;;;;5.45;1.90;;;27.70;80.20;;;;;;5069152;28;20436;-81
2022/05/23 10:53:37;;;;;;;5.10;1.80;;;27.70;79.70;;;;;;5050913;28;20489;-82
2022/05/23 10:56:10;;;;;;;4.15;2.10;;;27.60;77.40;;;;;;5068837;28;20431;-82
2022/05/23 10:58:58;;;;;;;5.40;2.10;;;27.50;76.00;;;;;;5051319;28;20497;-82
2022/05/23 11:01:48;;;;;;;4.10;2.03;;;27.30;75.00;;;;;;5050785;28;20400;-82
2022/05/23 11:04:48;;;;;;;4.28;2.40;;;27.10;73.10;;;;;;5068413;28;20439;-82
2022/05/23 11:07:38;;;;;;;6.18;3.03;;;26.80;73.60;;;;;;5057882;28;20947;-82
2022/05/23 11:10:13;;;;;;;8.70;2.97;;;26.50;72.60;;;;;;5068432;28;20414;-82
2022/05/23 11:13:02;;;;;;;5.10;2.90;;;26.30;74.40;;;;;;5068400;28;20440;-82
2022/05/23 11:15:42;;;;;;;4.85;2.70;;;26.10;75.00;;;;;;5068178;28;20435;-82
2022/05/23 11:18:46;;;;;;;5.82;2.65;;;26.00;75.20;;;;;;5050480;28;20408;-82
2022/05/23 11:21:26;;;;;;;5.10;2.53;;;26.10;76.20;;;;;;5064717;28;20408;-82
2022/05/23 11:23:57;;;;;;;6.70;2.13;;;26.00;74.90;;;;;;5033899;28;20773;-82
2022/05/23 11:26:29;;;;;;;5.10;2.00;;;26.10;76.30;;;;;;5050048;28;20403;-82
2022/05/23 11:34:51;;;;;;;3.95;1.73;;;26.80;74.20;;;;;;5067941;28;20470;-80
2022/05/23 11:39:49;;;;;;;3.85;1.30;;;26.90;68.40;;;;;;5067982;28;20412;-82
2022/05/23 11:42:56;;;;;;;5.03;1.58;;;27.10;70.50;;;;;;5068088;28;20747;-82
2022/05/23 11:48:43;;;;;;;4.90;1.53;;;27.70;68.30;;;;;;5067754;28;20441;-82
2022/05/23 11:51:18;;;;;;;3.63;1.57;;;27.80;67.20;;;;;;5067453;28;20423;-82
2022/05/23 11:53:56;;;;;;;4.32;1.40;;;28.00;67.20;;;;;;5033207;28;20482;-82
2022/05/23 11:57:08;;;;;;;4.90;1.30;;;28.20;65.10;;;;;;5067839;28;20786;-81
2022/05/23 11:59:34;;;;;;;4.43;1.60;;;28.40;63.60;;;;;;5067326;28;20415;-82
2022/05/23 12:02:08;;;;;;;3.87;1.23;;;28.40;60.90;;;;;;5067797;28;20785;-82
2022/05/23 12:04:55;;;;;;;5.00;1.63;;;28.50;62.70;;;;;;5067930;28;20408;-82
2022/05/23 12:07:53;;;;;;;4.95;1.80;;;28.60;61.20;;;;;;5067700;28;20415;-82
2022/05/23 12:10:24;;;;;;;5.18;1.70;;;28.60;60.40;;;;;;5067595;28;20412;-82
2022/05/23 12:13:18;;;;;;;4.05;1.33;;;28.70;61.30;;;;;;5071034;28;20446;-82
2022/05/23 12:15:46;;;;;;;4.70;1.60;;;28.90;61.70;;;;;;5071467;28;20994;-82
2022/05/23 12:18:13;;;;;;;5.05;1.58;;;29.10;60.30;;;;;;5053794;28;20806;-82
2022/05/23 12:20:47;;;;;;;4.55;1.67;;;29.10;59.90;;;;;;5053798;28;20407;-82
2022/05/23 12:23:31;;;;;;;4.97;1.70;;;29.00;59.90;;;;;;5036773;28;20454;-81
2022/05/23 12:26:25;;;;;;;4.20;1.40;;;29.10;59.40;;;;;;5053531;28;21070;-82
2022/05/23 12:28:58;;;;;;;3.92;1.52;;;29.20;61.80;;;;;;5071575;28;20478;-82
2022/05/23 12:31:33;;;;;;;4.75;1.55;;;29.10;60.10;;;;;;5053196;28;20490;-81
2022/05/23 12:34:02;;;;;;;5.97;1.92;;;28.80;58.60;;;;;;5053234;28;21062;-81
2022/05/23 12:36:29;;;;;;;6.97;1.83;;;28.60;60.00;;;;;;5036360;28;20436;-82
2022/05/23 12:39:16;;;;;;;4.50;1.50;;;28.50;58.80;;;;;;5070923;28;20920;-82
2022/05/23 12:41:47;;;;;;;3.53;1.33;;;28.70;61.50;;;;;;5070637;28;20408;-82
2022/05/23 12:44:40;;;;;;;4.90;1.30;;;29.10;60.00;;;;;;5070965;28;20480;-82
2022/05/23 12:47:35;;;;;;;5.05;1.20;;;29.10;59.20;;;;;;5070618;28;20896;-82
2022/05/23 12:50:16;;;;;;;5.10;1.40;;;28.80;57.80;;;;;;5052484;28;20768;-82
2022/05/23 12:53:06;;;;;;;3.33;1.35;;;28.60;58.40;;;;;;5035797;28;20972;-82
2022/05/23 12:56:08;;;;;;;5.65;1.48;;;28.70;59.70;;;;;;5052820;28;20438;-82
2022/05/23 12:59:05;;;;;;;4.63;1.40;;;28.80;56.90;;;;;;5052625;28;20917;-82
2022/05/23 13:01:36;;;;;;;4.35;1.33;;;28.80;56.30;;;;;;5070754;28;20926;-82
2022/05/23 13:04:05;;;;;;;4.15;1.35;;;28.60;57.50;;;;;;5036246;28;20419;-81
2022/05/23 13:06:36;;;;;;;3.15;1.40;;;28.50;57.10;;;;;;5052635;28;20423;-82
2022/05/23 13:09:11;;;;;;;4.65;1.33;;;28.30;58.10;;;;;;5070651;28;20426;-82
2022/05/23 13:11:41;;;;;;;3.80;1.67;;;28.40;58.80;;;;;;5070450;28;20901;-82
2022/05/23 13:14:07;;;;;;;5.03;1.40;;;28.40;58.80;;;;;;5070656;28;20419;-82
2022/05/23 13:16:38;;;;;;;4.53;1.30;;;28.30;58.90;;;;;;5070341;28;20462;-81
2022/05/23 13:22:11;;;;;;;3.70;1.48;;;28.40;61.60;;;;;;5070226;28;20411;-82
2022/05/23 13:24:53;;;;;;;4.20;1.50;;;28.30;58.70;;;;;;5070366;28;20479;-81
2022/05/23 13:27:22;;;;;;;3.53;1.55;;;28.10;59.80;;;;;;5070080;28;20423;-81
2022/05/23 13:29:56;;;;;;;3.22;1.52;;;27.80;61.40;;;;;;5052248;28;20414;-81
2022/05/23 13:32:23;;;;;;;4.22;1.80;;;27.50;60.00;;;;;;5069882;28;20399;-81
2022/05/23 13:34:49;;;;;;;6.38;1.63;;;27.10;60.40;;;;;;5070207;28;20403;-81
2022/05/23 13:37:41;;;;;;;3.67;1.57;;;27.00;61.30;;;;;;5070396;28;20407;-81
2022/05/23 13:40:10;;;;;;;3.33;1.50;;;26.80;61.50;;;;;;5046926;28;20426;-81
2022/05/23 13:42:36;;;;;;;3.50;1.50;;;26.70;63.10;;;;;;5050113;28;20406;-81
2022/05/23 13:45:24;;;;;;;4.72;1.70;;;26.60;62.40;;;;;;5049520;28;20770;-81
2022/05/23 13:47:57;;;;;;;4.18;1.55;;;26.60;63.20;;;;;;5049852;28;20922;-82
2022/05/23 13:50:32;;;;;;;4.72;1.65;;;26.80;63.10;;;;;;5050024;28;20409;-82
2022/05/23 13:53:16;;;;;;;4.55;1.60;;;26.90;63.50;;;;;;5049631;28;20440;-81
2022/05/23 13:55:50;;;;;;;4.30;1.60;;;26.90;60.30;;;;;;5049650;28;20430;-81
2022/05/23 13:58:23;;;;;;;4.50;1.83;;;26.80;61.70;;;;;;5049539;28;21021;-81
2022/05/23 14:01:23;;;;;;;6.03;1.70;;;26.50;61.80;;;;;;5049645;28;20972;-81
2022/05/23 14:04:02;;;;;;;4.03;1.63;;;26.40;62.50;;;;;;5045936;28;20406;-81
2022/05/23 14:06:33;;;;;;;4.35;1.80;;;26.20;62.30;;;;;;5049626;28;20875;-81
2022/05/23 14:09:03;;;;;;;3.70;1.40;;;26.10;63.40;;;;;;5049782;28;20455;-82
2022/05/23 14:11:52;;;;;;;2.90;1.30;;;26.00;64.00;;;;;;5049344;28;20412;-81
2022/05/23 14:14:20;;;;;;;3.75;1.58;;;25.90;64.90;;;;;;5049341;28;20409;-81